sensor_id;sensor_type;location;lat;lon;timestamp;pressure;altitude;pressure_sealevel;temperature;humidity
2214;BME280;1113;42.018;23.986;2022-07-11T09:42:56;92820.53;;;22.32;54.94
2214;BME280;1113;42.018;23.986;2022-07-11T09:45:24;92824.69;;;22.58;55.31
2214;BME280;1113;42.018;23.986;2022-07-11T09:47:55;92830.69;;;22.87;54.93
2214;BME280;1113;42.018;23.986;2022-07-11T09:50:23;92823.16;;;23.14;53.19
2214;BME280;1113;42.018;23.986;2022-07-11T09:53:01;92826.13;;;23.20;54.20
2214;BME280;1113;42.018;23.986;2022-07-11T09:55:29;92822.78;;;23.12;53.23
2214;BME280;1113;42.018;23.986;2022-07-11T09:57:58;92826.44;;;23.50;52.07
2214;BME280;1113;42.018;23.986;2022-07-11T10:00:24;92828.31;;;23.57;51.91
2214;BME280;1113;42.018;23.986;2022-07-11T10:02:52;92823.81;;;23.40;45.91
2214;BME280;1113;42.018;23.986;2022-07-11T10:05:21;92820.06;;;23.34;49.53
2214;BME280;1113;42.018;23.986;2022-07-11T10:07:48;92821.66;;;23.10;51.49
2214;BME280;1113;42.018;23.986;2022-07-11T10:10:15;92828.34;;;23.36;50.72
2214;BME280;1113;42.018;23.986;2022-07-11T10:12:42;92817.88;;;23.11;50.68
2214;BME280;1113;42.018;23.986;2022-07-11T10:15:15;92827.56;;;23.46;50.46
2214;BME280;1113;42.018;23.986;2022-07-11T10:17:52;92824.53;;;23.58;49.58
2214;BME280;1113;42.018;23.986;2022-07-11T10:20:25;92830.97;;;23.43;48.56
2214;BME280;1113;42.018;23.986;2022-07-11T10:22:58;92826.84;;;23.31;46.91
2214;BME280;1113;42.018;23.986;2022-07-11T10:25:35;92823.91;;;23.08;49.16
2214;BME280;1113;42.018;23.986;2022-07-11T10:28:22;92826.88;;;23.20;50.60
2214;BME280;1113;42.018;23.986;2022-07-11T10:30:54;92825.34;;;23.30;49.95
2214;BME280;1113;42.018;23.986;2022-07-11T10:33:25;92814.91;;;22.98;49.98
2214;BME280;1113;42.018;23.986;2022-07-11T10:35:53;92818.66;;;22.97;49.02
2214;BME280;1113;42.018;23.986;2022-07-11T10:38:22;92816.78;;;23.05;50.01
2214;BME280;1113;42.018;23.986;2022-07-11T10:40:51;92822.34;;;23.24;49.69
2214;BME280;1113;42.018;23.986;2022-07-11T10:43:37;92823.81;;;23.36;48.39
2214;BME280;1113;42.018;23.986;2022-07-11T10:46:08;92816.81;;;22.94;48.15
2214;BME280;1113;42.018;23.986;2022-07-11T10:48:52;92822.44;;;22.96;49.48
2214;BME280;1113;42.018;23.986;2022-07-11T10:51:25;92824.59;;;23.26;49.33
2214;BME280;1113;42.018;23.986;2022-07-11T10:53:53;92827.56;;;23.39;48.73
2214;BME280;1113;42.018;23.986;2022-07-11T10:56:30;92822.31;;;23.39;50.10
2214;BME280;1113;42.018;23.986;2022-07-11T10:59:10;92828.00;;;23.26;47.42
2214;BME280;1113;42.018;23.986;2022-07-11T11:02:04;92817.00;;;23.64;48.33
2214;BME280;1113;42.018;23.986;2022-07-11T11:04:45;92828.25;;;23.71;48.14
2214;BME280;1113;42.018;23.986;2022-07-11T11:07:32;92828.22;;;23.75;48.68
2214;BME280;1113;42.018;23.986;2022-07-11T11:10:01;92822.31;;;23.42;48.37
2214;BME280;1113;42.018;23.986;2022-07-11T11:15:39;92818.91;;;23.38;46.20
2214;BME280;1113;42.018;23.986;2022-07-11T11:18:33;92818.09;;;23.66;46.66
2214;BME280;1113;42.018;23.986;2022-07-11T11:21:18;92834.34;;;23.50;46.88
2214;BME280;1113;42.018;23.986;2022-07-11T11:24:02;92814.66;;;23.76;45.44
2214;BME280;1113;42.018;23.986;2022-07-11T11:26:54;92816.97;;;23.67;46.55
2214;BME280;1113;42.018;23.986;2022-07-11T11:29:27;92829.31;;;23.84;49.03
2214;BME280;1113;42.018;23.986;2022-07-11T11:31:57;92816.28;;;23.45;45.66
2214;BME280;1113;42.018;23.986;2022-07-11T11:34:26;92811.38;;;23.58;47.57
2214;BME280;1113;42.018;23.986;2022-07-11T11:36:55;92818.91;;;23.49;44.46
2214;BME280;1113;42.018;23.986;2022-07-11T11:39:25;92815.84;;;23.65;45.83
2214;BME280;1113;42.018;23.986;2022-07-11T11:41:52;92821.25;;;23.22;46.82
2214;BME280;1113;42.018;23.986;2022-07-11T11:44:19;92818.53;;;23.50;46.49
2214;BME280;1113;42.018;23.986;2022-07-11T11:46:46;92823.50;;;23.23;45.11
2214;BME280;1113;42.018;23.986;2022-07-11T11:49:17;92814.44;;;23.32;45.48
2214;BME280;1113;42.018;23.986;2022-07-11T11:51:46;92814.69;;;23.73;44.47
2214;BME280;1113;42.018;23.986;2022-07-11T11:54:21;92816.16;;;23.77;45.29
2214;BME280;1113;42.018;23.986;2022-07-11T11:56:48;92818.50;;;23.54;47.92
2214;BME280;1113;42.018;23.986;2022-07-11T11:59:15;92819.13;;;23.86;48.15
2214;BME280;1113;42.018;23.986;2022-07-11T12:01:44;92813.97;;;23.65;44.72
2214;BME280;1113;42.018;23.986;2022-07-11T12:04:12;92810.53;;;23.75;45.97
2214;BME280;1113;42.018;23.986;2022-07-11T12:06:41;92823.59;;;23.93;47.38
2214;BME280;1113;42.018;23.986;2022-07-11T12:09:11;92827.00;;;23.97;44.77
2214;BME280;1113;42.018;23.986;2022-07-11T12:11:38;92826.63;;;23.95;44.01
2214;BME280;1113;42.018;23.986;2022-07-11T12:14:09;92828.88;;;23.93;44.08
2214;BME280;1113;42.018;23.986;2022-07-11T12:16:41;92823.00;;;23.68;46.71
2214;BME280;1113;42.018;23.986;2022-07-11T12:19:10;92817.09;;;23.21;44.14
2214;BME280;1113;42.018;23.986;2022-07-11T12:21:38;92821.50;;;23.63;45.40
2214;BME280;1113;42.018;23.986;2022-07-11T12:24:08;92827.47;;;23.78;44.41
2214;BME280;1113;42.018;23.986;2022-07-11T12:26:38;92822.84;;;24.00;44.98
2214;BME280;1113;42.018;23.986;2022-07-11T12:29:10;92820.25;;;23.89;44.71
2214;BME280;1113;42.018;23.986;2022-07-11T12:31:46;92822.03;;;24.06;44.63
2214;BME280;1113;42.018;23.986;2022-07-11T12:34:13;92828.13;;;24.00;44.24
2214;BME280;1113;42.018;23.986;2022-07-11T12:36:41;92823.22;;;23.98;44.92
2214;BME280;1113;42.018;23.986;2022-07-11T12:39:08;92825.09;;;24.01;45.35
2214;BME280;1113;42.018;23.986;2022-07-11T12:41:36;92819.38;;;24.13;44.93
2214;BME280;1113;42.018;23.986;2022-07-11T12:44:03;92822.31;;;24.22;43.89
2214;BME280;1113;42.018;23.986;2022-07-11T12:46:48;92822.47;;;24.01;44.44
2214;BME280;1113;42.018;23.986;2022-07-11T12:49:15;92818.53;;;24.27;43.39
2214;BME280;1113;42.018;23.986;2022-07-11T12:51:44;92816.28;;;24.22;42.80
2214;BME280;1113;42.018;23.986;2022-07-11T12:54:14;92821.00;;;23.89;45.03
2214;BME280;1113;42.018;23.986;2022-07-11T12:56:52;92812.38;;;23.78;42.94
2214;BME280;1113;42.018;23.986;2022-07-11T12:59:21;92811.06;;;24.15;45.10
2214;BME280;1113;42.018;23.986;2022-07-11T13:01:59;92818.78;;;24.43;45.80
2214;BME280;1113;42.018;23.986;2022-07-11T13:04:34;92816.50;;;24.52;47.22
2214;BME280;1113;42.018;23.986;2022-07-11T13:07:35;92817.59;;;24.55;44.71
2214;BME280;1113;42.018;23.986;2022-07-11T13:10:20;92825.41;;;24.69;45.10
2214;BME280;1113;42.018;23.986;2022-07-11T13:12:51;92822.19;;;24.47;41.94
2214;BME280;1113;42.018;23.986;2022-07-11T13:15:18;92821.34;;;24.58;43.02
2214;BME280;1113;42.018;23.986;2022-07-11T13:17:47;92811.84;;;24.67;44.30
2214;BME280;1113;42.018;23.986;2022-07-11T13:20:16;92821.09;;;24.38;42.13
2214;BME280;1113;42.018;23.986;2022-07-11T13:22:44;92821.69;;;24.63;42.85
2214;BME280;1113;42.018;23.986;2022-07-11T13:25:12;92821.09;;;24.86;43.97
2214;BME280;1113;42.018;23.986;2022-07-11T13:27:40;92811.50;;;24.62;42.86
2214;BME280;1113;42.018;23.986;2022-07-11T13:30:11;92817.94;;;24.61;46.83
2214;BME280;1113;42.018;23.986;2022-07-11T13:32:40;92811.03;;;24.74;44.34
2214;BME280;1113;42.018;23.986;2022-07-11T13:35:07;92813.88;;;24.90;43.31
2214;BME280;1113;42.018;23.986;2022-07-11T13:37:34;92805.53;;;24.95;43.49
2214;BME280;1113;42.018;23.986;2022-07-11T13:40:04;92806.78;;;24.83;42.60
2214;BME280;1113;42.018;23.986;2022-07-11T13:42:31;92805.22;;;24.90;43.44
2214;BME280;1113;42.018;23.986;2022-07-11T13:45:00;92807.84;;;24.45;45.76
2214;BME280;1113;42.018;23.986;2022-07-11T13:47:28;92814.56;;;24.57;42.98
2214;BME280;1113;42.018;23.986;2022-07-11T13:49:55;92813.31;;;24.72;44.18
2214;BME280;1113;42.018;23.986;2022-07-11T13:52:22;92814.75;;;24.80;43.98
2214;BME280;1113;42.018;23.986;2022-07-11T13:54:49;92816.63;;;24.79;43.95
2214;BME280;1113;42.018;23.986;2022-07-11T13:57:16;92810.06;;;25.02;43.07
2214;BME280;1113;42.018;23.986;2022-07-11T13:59:43;92814.59;;;25.01;44.65
2214;BME280;1113;42.018;23.986;2022-07-11T14:02:10;92824.50;;;24.83;42.10
2214;BME280;1113;42.018;23.986;2022-07-11T14:04:38;92823.81;;;24.79;43.14
2214;BME280;1113;42.018;23.986;2022-07-11T14:07:06;92812.38;;;24.89;44.04
2214;BME280;1113;42.018;23.986;2022-07-11T14:09:34;92815.69;;;25.04;43.01
2214;BME280;1113;42.018;23.986;2022-07-11T14:12:01;92812.03;;;25.28;43.38
2214;BME280;1113;42.018;23.986;2022-07-11T14:14:28;92819.97;;;25.62;41.96
2214;BME280;1113;42.018;23.986;2022-07-11T14:16:55;92824.94;;;26.18;41.98
2214;BME280;1113;42.018;23.986;2022-07-11T14:19:22;92816.81;;;25.74;40.98
2214;BME280;1113;42.018;23.986;2022-07-11T14:21:50;92817.34;;;25.25;41.01
2214;BME280;1113;42.018;23.986;2022-07-11T14:24:17;92809.31;;;25.35;42.07
2214;BME280;1113;42.018;23.986;2022-07-11T14:26:44;92811.75;;;24.78;41.73
2214;BME280;1113;42.018;23.986;2022-07-11T14:29:12;92811.63;;;24.89;42.35
2214;BME280;1113;42.018;23.986;2022-07-11T14:31:47;92819.00;;;25.11;42.12
2214;BME280;1113;42.018;23.986;2022-07-11T14:34:14;92826.00;;;25.63;42.52
2214;BME280;1113;42.018;23.986;2022-07-11T14:36:41;92818.03;;;25.32;42.00
2214;BME280;1113;42.018;23.986;2022-07-11T14:39:09;92825.16;;;25.01;43.29
2214;BME280;1113;42.018;23.986;2022-07-11T14:41:36;92825.13;;;25.39;43.21
2214;BME280;1113;42.018;23.986;2022-07-11T14:44:15;92833.13;;;25.32;41.66
2214;BME280;1113;42.018;23.986;2022-07-11T14:46:47;92828.84;;;25.45;40.60
2214;BME280;1113;42.018;23.986;2022-07-11T14:49:13;92825.16;;;25.01;41.26
2214;BME280;1113;42.018;23.986;2022-07-11T14:51:40;92832.88;;;24.78;42.10
2214;BME280;1113;42.018;23.986;2022-07-11T14:54:09;92836.41;;;24.61;42.77
2214;BME280;1113;42.018;23.986;2022-07-11T14:56:37;92836.50;;;24.91;42.80
2214;BME280;1113;42.018;23.986;2022-07-11T14:59:04;92840.41;;;24.79;42.05
2214;BME280;1113;42.018;23.986;2022-07-11T15:01:31;92839.25;;;25.25;42.23
2214;BME280;1113;42.018;23.986;2022-07-11T15:03:58;92837.91;;;25.10;41.71
2214;BME280;1113;42.018;23.986;2022-07-11T15:06:28;92845.88;;;25.40;41.62
2214;BME280;1113;42.018;23.986;2022-07-11T15:09:10;92845.88;;;25.78;41.38
2214;BME280;1113;42.018;23.986;2022-07-11T15:11:54;92844.41;;;25.36;42.43
2214;BME280;1113;42.018;23.986;2022-07-11T15:14:39;92849.28;;;25.03;43.73
2214;BME280;1113;42.018;23.986;2022-07-11T15:17:06;92853.84;;;24.92;43.49
2214;BME280;1113;42.018;23.986;2022-07-11T15:19:33;92851.84;;;24.62;43.73
2214;BME280;1113;42.018;23.986;2022-07-11T15:22:00;92850.72;;;24.63;42.03
2214;BME280;1113;42.018;23.986;2022-07-11T15:24:28;92855.47;;;24.82;43.21
2214;BME280;1113;42.018;23.986;2022-07-11T15:26:55;92850.66;;;25.87;43.60
2214;BME280;1113;42.018;23.986;2022-07-11T15:29:23;92847.25;;;26.17;40.67
2214;BME280;1113;42.018;23.986;2022-07-11T15:31:50;92851.09;;;25.47;41.06
2214;BME280;1113;42.018;23.986;2022-07-11T15:34:17;92852.06;;;25.95;41.66
2214;BME280;1113;42.018;23.986;2022-07-11T15:36:44;92861.22;;;26.98;40.00
2214;BME280;1113;42.018;23.986;2022-07-11T15:39:11;92854.53;;;27.13;39.37
2214;BME280;1113;42.018;23.986;2022-07-11T15:41:39;92862.09;;;27.58;38.99
2214;BME280;1113;42.018;23.986;2022-07-11T15:44:08;92859.41;;;26.68;39.09
2214;BME280;1113;42.018;23.986;2022-07-11T15:46:36;92866.22;;;26.92;39.91
2214;BME280;1113;42.018;23.986;2022-07-11T15:49:03;92867.34;;;27.61;38.00
2214;BME280;1113;42.018;23.986;2022-07-11T15:51:30;92863.38;;;27.07;38.11
2214;BME280;1113;42.018;23.986;2022-07-11T15:53:57;92867.25;;;26.75;38.73
2214;BME280;1113;42.018;23.986;2022-07-11T15:56:24;92869.66;;;26.89;39.49
2214;BME280;1113;42.018;23.986;2022-07-11T15:58:52;92872.78;;;27.51;38.35
2214;BME280;1113;42.018;23.986;2022-07-11T16:01:21;92877.75;;;27.29;38.60
2214;BME280;1113;42.018;23.986;2022-07-11T16:03:48;92877.28;;;26.87;38.53
2214;BME280;1113;42.018;23.986;2022-07-11T16:06:15;92880.50;;;26.48;38.79
2214;BME280;1113;42.018;23.986;2022-07-11T16:08:42;92879.63;;;26.82;38.99
2214;BME280;1113;42.018;23.986;2022-07-11T16:11:11;92880.34;;;27.52;38.56
2214;BME280;1113;42.018;23.986;2022-07-11T16:13:38;92887.34;;;27.86;37.57
2214;BME280;1113;42.018;23.986;2022-07-11T16:16:07;92894.81;;;28.11;37.11
2214;BME280;1113;42.018;23.986;2022-07-11T16:18:34;92893.47;;;27.63;36.91
2214;BME280;1113;42.018;23.986;2022-07-11T16:21:02;92898.97;;;27.29;38.94
2214;BME280;1113;42.018;23.986;2022-07-11T16:23:29;92906.63;;;28.06;36.29
2214;BME280;1113;42.018;23.986;2022-07-11T16:25:56;92902.22;;;28.00;36.15
2214;BME280;1113;42.018;23.986;2022-07-11T16:28:23;92904.03;;;28.42;36.16
2214;BME280;1113;42.018;23.986;2022-07-11T16:30:50;92913.94;;;28.02;35.93
2214;BME280;1113;42.018;23.986;2022-07-11T16:33:18;92905.53;;;26.70;36.97
2214;BME280;1113;42.018;23.986;2022-07-11T16:35:46;92910.63;;;25.97;38.32
2214;BME280;1113;42.018;23.986;2022-07-11T16:38:13;92918.47;;;25.32;39.17
2214;BME280;1113;42.018;23.986;2022-07-11T16:40:40;92909.47;;;24.08;41.45
2214;BME280;1113;42.018;23.986;2022-07-11T16:43:24;92911.91;;;23.46;41.62
2214;BME280;1113;42.018;23.986;2022-07-11T16:45:52;92915.69;;;23.30;43.06
2214;BME280;1113;42.018;23.986;2022-07-11T16:48:22;92911.91;;;22.67;43.36
2214;BME280;1113;42.018;23.986;2022-07-11T16:50:51;92915.28;;;22.61;43.49
2214;BME280;1113;42.018;23.986;2022-07-11T16:53:18;92914.91;;;22.45;43.75
2214;BME280;1113;42.018;23.986;2022-07-11T16:55:45;92918.28;;;22.38;43.98
2214;BME280;1113;42.018;23.986;2022-07-11T16:58:12;92916.88;;;21.71;45.39
2214;BME280;1113;42.018;23.986;2022-07-11T17:00:39;92921.81;;;21.22;47.12
2214;BME280;1113;42.018;23.986;2022-07-11T17:03:07;92921.69;;;21.00;46.17
2214;BME280;1113;42.018;23.986;2022-07-11T17:05:38;92921.13;;;21.25;47.26
2214;BME280;1113;42.018;23.986;2022-07-11T17:08:06;92929.72;;;20.74;47.60
2214;BME280;1113;42.018;23.986;2022-07-11T17:10:50;92933.59;;;20.87;51.41
2214;BME280;1113;42.018;23.986;2022-07-11T17:13:17;92932.97;;;20.27;48.04
2214;BME280;1113;42.018;23.986;2022-07-11T17:15:44;92937.22;;;20.35;49.08
2214;BME280;1113;42.018;23.986;2022-07-11T17:18:11;92939.63;;;20.51;49.17
2214;BME280;1113;42.018;23.986;2022-07-11T17:20:39;92951.81;;;20.36;49.27
2214;BME280;1113;42.018;23.986;2022-07-11T17:23:08;92949.03;;;20.22;49.62
2214;BME280;1113;42.018;23.986;2022-07-11T17:25:35;92947.53;;;19.87;49.70
2214;BME280;1113;42.018;23.986;2022-07-11T17:28:02;92951.41;;;19.97;49.54
2214;BME280;1113;42.018;23.986;2022-07-11T17:30:29;92949.56;;;20.01;49.64
2214;BME280;1113;42.018;23.986;2022-07-11T17:32:56;92946.69;;;19.79;49.80
2214;BME280;1113;42.018;23.986;2022-07-11T17:35:23;92959.56;;;19.92;51.04
2214;BME280;1113;42.018;23.986;2022-07-11T17:37:52;92955.25;;;19.76;50.76
2214;BME280;1113;42.018;23.986;2022-07-11T17:40:19;92958.06;;;19.91;50.55
2214;BME280;1113;42.018;23.986;2022-07-11T17:42:46;92962.16;;;19.88;50.57
2214;BME280;1113;42.018;23.986;2022-07-11T17:45:14;92956.44;;;19.79;50.61
2214;BME280;1113;42.018;23.986;2022-07-11T17:47:41;92962.56;;;19.64;51.86
2214;BME280;1113;42.018;23.986;2022-07-11T17:50:08;92964.97;;;19.49;51.09
2214;BME280;1113;42.018;23.986;2022-07-11T17:52:36;92972.19;;;19.30;51.10
2214;BME280;1113;42.018;23.986;2022-07-11T17:55:06;92971.38;;;19.26;52.70
2214;BME280;1113;42.018;23.986;2022-07-11T17:57:33;92981.53;;;18.81;54.04
2214;BME280;1113;42.018;23.986;2022-07-11T18:00:01;92973.38;;;18.64;54.96
2214;BME280;1113;42.018;23.986;2022-07-11T18:02:29;92988.28;;;18.63;53.36
2214;BME280;1113;42.018;23.986;2022-07-11T18:04:55;92985.34;;;18.45;55.17
2214;BME280;1113;42.018;23.986;2022-07-11T18:07:22;92990.66;;;18.29;55.20
2214;BME280;1113;42.018;23.986;2022-07-11T18:09:51;92992.56;;;18.13;54.71
2214;BME280;1113;42.018;23.986;2022-07-11T18:12:20;92989.63;;;17.95;55.36
2214;BME280;1113;42.018;23.986;2022-07-11T18:14:49;92991.06;;;17.93;55.46
2214;BME280;1113;42.018;23.986;2022-07-11T18:17:17;92999.44;;;17.83;55.28
2214;BME280;1113;42.018;23.986;2022-07-11T18:19:44;93002.34;;;17.78;56.00
2214;BME280;1113;42.018;23.986;2022-07-11T18:22:11;93010.31;;;17.85;55.85
2214;BME280;1113;42.018;23.986;2022-07-11T18:24:38;93005.56;;;17.90;55.65
2214;BME280;1113;42.018;23.986;2022-07-11T18:27:06;93010.47;;;17.92;56.40
2214;BME280;1113;42.018;23.986;2022-07-11T18:29:35;93016.50;;;17.96;55.24
2214;BME280;1113;42.018;23.986;2022-07-11T18:32:03;93012.84;;;17.65;56.65
2214;BME280;1113;42.018;23.986;2022-07-11T18:34:31;93012.03;;;17.46;57.33
2214;BME280;1113;42.018;23.986;2022-07-11T18:36:58;93015.78;;;17.29;58.93
2214;BME280;1113;42.018;23.986;2022-07-11T18:39:25;93024.09;;;17.34;59.04
2214;BME280;1113;42.018;23.986;2022-07-11T18:42:09;93031.84;;;16.99;59.56
2214;BME280;1113;42.018;23.986;2022-07-11T18:44:38;93033.53;;;17.08;59.07
2214;BME280;1113;42.018;23.986;2022-07-11T18:47:05;93035.72;;;17.37;57.79
2214;BME280;1113;42.018;23.986;2022-07-11T18:49:33;93032.09;;;17.10;57.88
2214;BME280;1113;42.018;23.986;2022-07-11T18:52:00;93042.53;;;16.94;59.60
2214;BME280;1113;42.018;23.986;2022-07-11T18:54:28;93045.66;;;17.00;60.06
2214;BME280;1113;42.018;23.986;2022-07-11T18:56:55;93048.25;;;17.16;59.61
2214;BME280;1113;42.018;23.986;2022-07-11T18:59:23;93055.72;;;16.70;61.50
2214;BME280;1113;42.018;23.986;2022-07-11T19:01:52;93055.34;;;16.44;61.91
2214;BME280;1113;42.018;23.986;2022-07-11T19:04:19;93060.22;;;16.05;64.11
2214;BME280;1113;42.018;23.986;2022-07-11T19:06:46;93063.13;;;15.63;66.65
2214;BME280;1113;42.018;23.986;2022-07-11T19:09:13;93062.56;;;15.45;66.61
2214;BME280;1113;42.018;23.986;2022-07-11T19:11:41;93068.94;;;15.36;66.97
2214;BME280;1113;42.018;23.986;2022-07-11T19:14:09;93070.03;;;15.47;65.17
2214;BME280;1113;42.018;23.986;2022-07-11T19:16:41;93080.00;;;15.33;67.59
2214;BME280;1113;42.018;23.986;2022-07-11T19:19:13;93073.81;;;15.25;66.98
2214;BME280;1113;42.018;23.986;2022-07-11T19:21:43;93076.06;;;15.02;68.77
2214;BME280;1113;42.018;23.986;2022-07-11T19:24:10;93085.94;;;15.09;69.58
2214;BME280;1113;42.018;23.986;2022-07-11T19:26:38;93079.13;;;15.17;68.14
2214;BME280;1113;42.018;23.986;2022-07-11T19:29:08;93091.81;;;15.18;68.14
2214;BME280;1113;42.018;23.986;2022-07-11T19:31:44;93089.66;;;15.32;69.85
2214;BME280;1113;42.018;23.986;2022-07-11T19:34:16;93096.53;;;15.04;71.33
2214;BME280;1113;42.018;23.986;2022-07-11T19:36:47;93100.81;;;15.21;72.43
2214;BME280;1113;42.018;23.986;2022-07-11T19:39:17;93096.78;;;14.66;73.78
2214;BME280;1113;42.018;23.986;2022-07-11T19:41:48;93100.44;;;14.65;73.66
2214;BME280;1113;42.018;23.986;2022-07-11T19:44:20;93109.31;;;14.64;73.40
2214;BME280;1113;42.018;23.986;2022-07-11T19:46:57;93107.66;;;14.92;72.25
2214;BME280;1113;42.018;23.986;2022-07-11T19:49:31;93106.97;;;14.71;73.19
2214;BME280;1113;42.018;23.986;2022-07-11T19:52:01;93112.44;;;14.57;74.35
2214;BME280;1113;42.018;23.986;2022-07-11T19:54:29;93112.38;;;14.45;74.15
2214;BME280;1113;42.018;23.986;2022-07-11T19:57:25;93114.50;;;14.22;76.01
2214;BME280;1113;42.018;23.986;2022-07-11T20:00:09;93117.31;;;13.87;81.83
2214;BME280;1113;42.018;23.986;2022-07-11T20:02:48;93116.00;;;14.02;80.36
2214;BME280;1113;42.018;23.986;2022-07-11T20:05:20;93120.94;;;13.95;79.91
2214;BME280;1113;42.018;23.986;2022-07-11T20:07:53;93122.22;;;14.10;77.27
2214;BME280;1113;42.018;23.986;2022-07-11T20:10:20;93119.56;;;14.18;77.68
2214;BME280;1113;42.018;23.986;2022-07-11T20:12:47;93128.19;;;13.81;79.71
2214;BME280;1113;42.018;23.986;2022-07-11T20:15:14;93129.41;;;13.83;78.11
2214;BME280;1113;42.018;23.986;2022-07-11T20:17:41;93130.56;;;13.65;81.72
2214;BME280;1113;42.018;23.986;2022-07-11T20:20:09;93135.78;;;13.56;80.84
2214;BME280;1113;42.018;23.986;2022-07-11T20:22:38;93139.41;;;13.64;80.01
2214;BME280;1113;42.018;23.986;2022-07-11T20:25:05;93121.31;;;13.55;84.37
2214;BME280;1113;42.018;23.986;2022-07-11T20:27:33;93126.56;;;13.30;85.80
2214;BME280;1113;42.018;23.986;2022-07-11T20:30:00;93131.66;;;12.91;88.74
2214;BME280;1113;42.018;23.986;2022-07-11T20:32:29;93131.97;;;12.90;91.72
2214;BME280;1113;42.018;23.986;2022-07-11T20:34:56;93129.06;;;13.09;89.23
2214;BME280;1113;42.018;23.986;2022-07-11T20:37:23;93143.09;;;12.99;89.86
2214;BME280;1113;42.018;23.986;2022-07-11T20:39:53;93141.13;;;12.96;87.89
2214;BME280;1113;42.018;23.986;2022-07-11T20:42:20;93140.34;;;13.13;85.62
2214;BME280;1113;42.018;23.986;2022-07-11T20:44:46;93152.88;;;12.85;92.79
2214;BME280;1113;42.018;23.986;2022-07-11T20:47:13;93146.34;;;12.53;100.00
2214;BME280;1113;42.018;23.986;2022-07-11T20:49:40;93148.63;;;12.63;100.00
2214;BME280;1113;42.018;23.986;2022-07-11T20:52:07;93154.22;;;12.91;95.54
2214;BME280;1113;42.018;23.986;2022-07-11T20:54:35;93165.06;;;12.84;98.24
2214;BME280;1113;42.018;23.986;2022-07-11T20:57:04;93157.75;;;12.78;94.89
2214;BME280;1113;42.018;23.986;2022-07-11T20:59:30;93162.66;;;12.71;95.92
2214;BME280;1113;42.018;23.986;2022-07-11T21:01:58;93164.91;;;12.81;95.10
2214;BME280;1113;42.018;23.986;2022-07-11T21:04:25;93162.97;;;12.60;100.00
2214;BME280;1113;42.018;23.986;2022-07-11T21:06:53;93164.31;;;12.32;100.00
2214;BME280;1113;42.018;23.986;2022-07-11T21:09:20;93168.56;;;12.28;100.00
2214;BME280;1113;42.018;23.986;2022-07-11T21:11:47;93169.03;;;12.21;100.00
2214;BME280;1113;42.018;23.986;2022-07-11T21:14:15;93169.31;;;12.20;100.00
2214;BME280;1113;42.018;23.986;2022-07-11T21:16:42;93163.84;;;12.13;100.00
2214;BME280;1113;42.018;23.986;2022-07-11T21:19:09;93163.69;;;12.09;100.00
2214;BME280;1113;42.018;23.986;2022-07-11T21:21:36;93160.78;;;12.11;100.00
2214;BME280;1113;42.018;23.986;2022-07-11T21:24:03;93161.41;;;12.33;100.00
2214;BME280;1113;42.018;23.986;2022-07-11T21:26:30;93154.09;;;12.18;100.00
2214;BME280;1113;42.018;23.986;2022-07-11T21:28:59;93159.06;;;11.89;100.00
2214;BME280;1113;42.018;23.986;2022-07-11T21:31:27;93166.22;;;11.92;100.00
2214;BME280;1113;42.018;23.986;2022-07-11T21:33:54;93162.16;;;11.99;100.00
2214;BME280;1113;42.018;23.986;2022-07-11T21:36:21;93161.41;;;12.16;100.00
2214;BME280;1113;42.018;23.986;2022-07-11T21:38:47;93164.31;;;12.41;100.00
2214;BME280;1113;42.018;23.986;2022-07-11T21:41:14;93158.06;;;12.24;100.00
2214;BME280;1113;42.018;23.986;2022-07-11T21:43:41;93159.59;;;11.77;100.00
2214;BME280;1113;42.018;23.986;2022-07-11T21:46:08;93164.97;;;11.81;100.00
2214;BME280;1113;42.018;23.986;2022-07-11T21:48:36;93162.69;;;11.88;100.00
2214;BME280;1113;42.018;23.986;2022-07-11T21:51:04;93170.22;;;12.07;100.00
2214;BME280;1113;42.018;23.986;2022-07-11T21:53:30;93170.56;;;11.74;100.00
2214;BME280;1113;42.018;23.986;2022-07-11T21:55:57;93164.94;;;11.41;100.00
2214;BME280;1113;42.018;23.986;2022-07-11T21:58:26;93170.06;;;11.63;100.00
2214;BME280;1113;42.018;23.986;2022-07-11T22:00:53;93175.56;;;11.70;100.00
2214;BME280;1113;42.018;23.986;2022-07-11T22:03:20;93175.03;;;11.51;100.00
2214;BME280;1113;42.018;23.986;2022-07-11T22:05:48;93179.38;;;11.42;100.00
2214;BME280;1113;42.018;23.986;2022-07-11T22:08:15;93177.34;;;11.61;100.00
2214;BME280;1113;42.018;23.986;2022-07-11T22:10:42;93179.22;;;11.69;100.00
2214;BME280;1113;42.018;23.986;2022-07-11T22:13:09;93178.72;;;11.59;100.00
2214;BME280;1113;42.018;23.986;2022-07-11T22:15:36;93180.25;;;11.60;100.00
2214;BME280;1113;42.018;23.986;2022-07-11T22:18:03;93177.75;;;11.15;100.00
2214;BME280;1113;42.018;23.986;2022-07-11T22:20:30;93182.56;;;11.08;100.00
2214;BME280;1113;42.018;23.986;2022-07-11T22:22:58;93184.69;;;11.06;100.00
2214;BME280;1113;42.018;23.986;2022-07-11T22:25:25;93189.88;;;11.37;100.00
2214;BME280;1113;42.018;23.986;2022-07-11T22:27:52;93183.56;;;11.21;100.00
2214;BME280;1113;42.018;23.986;2022-07-11T22:30:18;93197.03;;;11.09;100.00
2214;BME280;1113;42.018;23.986;2022-07-11T22:32:47;93187.31;;;10.92;100.00
2214;BME280;1113;42.018;23.986;2022-07-11T22:35:14;93191.25;;;10.90;100.00
2214;BME280;1113;42.018;23.986;2022-07-11T22:37:41;93199.47;;;10.92;100.00
2214;BME280;1113;42.018;23.986;2022-07-11T22:40:12;93193.09;;;11.12;100.00
2214;BME280;1113;42.018;23.986;2022-07-11T22:42:39;93185.84;;;11.22;100.00
2214;BME280;1113;42.018;23.986;2022-07-11T22:45:20;93186.56;;;10.92;100.00
2214;BME280;1113;42.018;23.986;2022-07-11T22:47:47;93181.69;;;10.90;100.00
2214;BME280;1113;42.018;23.986;2022-07-11T22:50:15;93185.97;;;10.72;100.00
2214;BME280;1113;42.018;23.986;2022-07-11T22:52:42;93179.47;;;10.75;100.00
2214;BME280;1113;42.018;23.986;2022-07-11T22:55:09;93175.41;;;10.83;100.00
2214;BME280;1113;42.018;23.986;2022-07-11T22:57:37;93177.66;;;10.75;100.00
2214;BME280;1113;42.018;23.986;2022-07-11T23:00:05;93183.50;;;10.67;100.00
2214;BME280;1113;42.018;23.986;2022-07-11T23:02:32;93185.34;;;10.67;100.00
2214;BME280;1113;42.018;23.986;2022-07-11T23:04:59;93177.25;;;10.60;100.00
2214;BME280;1113;42.018;23.986;2022-07-11T23:07:26;93182.47;;;10.68;100.00